Time;durP1;ratioP1;P1;durP2;ratioP2;P2;SDS_P1;SDS_P2;PMS_P1;PMS_P2;Temp;Humidity;BMP_temperature;BMP_pressure;BME280_temperature;BME280_humidity;BME280_pressure;Samples;Min_cycle;Max_cycle;Signal;HPM_P1;HPM_P2
2023/10/03 00:00:34;;;;;;;0.20;0.20;;;;;;;16.25;100.00;100149.22;5087665;28;20513;-58
2023/10/03 00:03:01;;;;;;;0.30;0.30;;;;;;;16.20;100.00;100141.41;5080282;28;20577;-57
2023/10/03 00:05:28;;;;;;;0.20;0.20;;;;;;;16.23;100.00;100137.69;5084998;28;20024;-58
2023/10/03 00:08:00;;;;;;;0.30;0.30;;;;;;;16.21;100.00;100139.59;5086146;28;20063;-58
2023/10/03 00:10:26;;;;;;;0.20;0.20;;;;;;;16.19;100.00;100141.50;5081566;28;20052;-58
2023/10/03 00:12:52;;;;;;;0.22;0.22;;;;;;;16.21;100.00;100144.97;5087847;28;20111;-58
2023/10/03 00:15:25;;;;;;;0.30;0.30;;;;;;;16.22;100.00;100134.16;5086768;28;20062;-58
2023/10/03 00:17:54;;;;;;;0.30;0.30;;;;;;;16.26;100.00;100133.03;5087920;28;20104;-58
2023/10/03 00:20:22;;;;;;;0.30;0.30;;;;;;;16.32;100.00;100126.47;5078754;28;20040;-57
2023/10/03 00:22:51;;;;;;;0.30;0.30;;;;;;;16.38;100.00;100136.84;5068279;28;20043;-58
2023/10/03 00:25:23;;;;;;;0.20;0.20;;;;;;;16.44;100.00;100134.72;5070299;28;20032;-58
2023/10/03 00:27:54;;;;;;;0.20;0.20;;;;;;;16.52;100.00;100128.97;5068523;28;20515;-58
2023/10/03 00:30:23;;;;;;;0.20;0.20;;;;;;;16.57;100.00;100118.84;5070445;28;20055;-58
2023/10/03 00:32:51;;;;;;;0.30;0.30;;;;;;;16.65;100.00;100124.66;5070735;28;20111;-58
2023/10/03 00:35:17;;;;;;;0.20;0.20;;;;;;;16.71;100.00;100113.56;5068895;28;20028;-58
2023/10/03 00:37:45;;;;;;;0.20;0.20;;;;;;;16.77;100.00;100113.22;5068522;28;20032;-58
2023/10/03 00:42:49;;;;;;;0.20;0.20;;;;;;;16.84;100.00;100118.16;5089715;28;20044;-58
2023/10/03 00:45:21;;;;;;;0.20;0.20;;;;;;;16.88;100.00;100125.09;5091299;28;20081;-58
2023/10/03 00:47:54;;;;;;;0.30;0.30;;;;;;;16.91;100.00;100116.00;5089194;28;20088;-58
2023/10/03 00:50:23;;;;;;;0.20;0.20;;;;;;;16.91;100.00;100116.00;5091539;28;20051;-58
2023/10/03 00:53:00;;;;;;;0.20;0.20;;;;;;;16.89;100.00;100107.16;5085364;28;20036;-58
2023/10/03 00:55:29;;;;;;;0.28;0.28;;;;;;;16.92;100.00;100104.28;5091340;28;20028;-58
2023/10/03 01:00:49;;;;;;;0.20;0.20;;;;;;;17.02;100.00;100097.44;5090298;28;20028;-61
2023/10/03 01:03:28;;;;;;;0.28;0.28;;;;;;;17.09;100.00;100101.50;5084589;28;20119;-61
2023/10/03 01:05:59;;;;;;;0.20;0.20;;;;;;;17.12;100.00;100098.63;5072002;28;20120;-61
2023/10/03 01:08:25;;;;;;;0.28;0.28;;;;;;;17.13;100.00;100101.22;5074073;28;20039;-61
2023/10/03 01:10:51;;;;;;;0.20;0.20;;;;;;;17.15;100.00;100098.44;5079694;28;20142;-61
2023/10/03 01:13:19;;;;;;;0.25;0.25;;;;;;;17.18;100.00;100092.91;5088052;28;20110;-61
2023/10/03 01:15:49;;;;;;;0.20;0.20;;;;;;;17.22;100.00;100089.09;5092171;28;20429;-61
2023/10/03 01:18:18;;;;;;;0.30;0.30;;;;;;;17.27;100.00;100089.69;5084805;28;20093;-61
2023/10/03 01:20:48;;;;;;;0.30;0.30;;;;;;;17.30;100.00;100084.13;5081244;28;20020;-61
2023/10/03 01:23:15;;;;;;;0.20;0.20;;;;;;;17.29;100.00;100074.34;5077971;28;20498;-61
2023/10/03 01:25:44;;;;;;;0.30;0.30;;;;;;;17.35;100.00;100079.34;5071647;28;20024;-61
2023/10/03 01:28:10;;;;;;;0.20;0.20;;;;;;;17.40;100.00;100088.00;5078111;28;20035;-61
2023/10/03 01:30:36;;;;;;;0.20;0.20;;;;;;;17.45;100.00;100085.94;5072155;28;20177;-61
2023/10/03 01:33:02;;;;;;;0.20;0.20;;;;;;;17.49;100.00;100082.13;5075901;28;20055;-61
2023/10/03 01:35:28;;;;;;;0.20;0.20;;;;;;;17.54;100.00;100080.03;5073258;28;20031;-60
2023/10/03 01:37:53;;;;;;;0.20;0.20;;;;;;;17.66;100.00;100083.81;5071536;28;20030;-60
2023/10/03 01:40:19;;;;;;;0.30;0.30;;;;;;;17.76;100.00;100079.59;5074311;28;20024;-60
2023/10/03 01:42:46;;;;;;;0.20;0.20;;;;;;;17.79;100.00;100069.50;5080829;28;20028;-61
2023/10/03 01:45:12;;;;;;;0.20;0.20;;;;;;;17.81;100.00;100056.81;5070079;28;20043;-61
2023/10/03 01:47:45;;;;;;;0.22;0.22;;;;;;;17.84;100.00;100059.31;5078229;28;20471;-61
2023/10/03 01:50:12;;;;;;;0.20;0.20;;;;;;;17.84;100.00;100051.25;5090028;28;20028;-60
2023/10/03 01:52:40;;;;;;;0.22;0.22;;;;;;;17.87;100.00;100044.81;5082244;28;20028;-61
2023/10/03 01:55:06;;;;;;;0.25;0.25;;;;;;;17.85;100.00;100047.59;5070008;28;20132;-60
2023/10/03 01:57:32;;;;;;;0.30;0.30;;;;;;;17.83;100.00;100046.81;5076527;28;20023;-61
2023/10/03 01:59:57;;;;;;;0.20;0.20;;;;;;;17.83;100.00;100054.91;5091062;28;20537;-60
2023/10/03 02:02:23;;;;;;;0.20;0.20;;;;;;;17.82;100.00;100053.19;5089198;28;20216;-61
2023/10/03 02:04:50;;;;;;;0.20;0.20;;;;;;;17.77;100.00;100047.22;5072362;28;20107;-61
2023/10/03 02:07:16;;;;;;;0.20;0.20;;;;;;;17.76;100.00;100053.53;5070647;28;20050;-60
2023/10/03 02:09:43;;;;;;;0.20;0.20;;;;;;;17.75;100.00;100048.25;5073050;28;20060;-61
2023/10/03 02:12:10;;;;;;;0.30;0.30;;;;;;;17.73;100.00;100045.66;5059691;28;20053;-60
2023/10/03 02:14:39;;;;;;;0.20;0.20;;;;;;;17.71;100.00;100039.50;5053639;28;20025;-61
2023/10/03 02:17:05;;;;;;;0.20;0.20;;;;;;;17.82;100.00;100047.81;5052312;28;20056;-61
2023/10/03 02:19:31;;;;;;;0.20;0.20;;;;;;;17.86;99.80;100043.94;5065452;28;20040;-60
2023/10/03 02:21:59;;;;;;;0.30;0.30;;;;;;;17.83;99.51;100044.13;5059029;28;20036;-61
2023/10/03 02:24:25;;;;;;;0.20;0.20;;;;;;;17.91;99.57;100051.72;5050124;28;20029;-61
2023/10/03 02:26:51;;;;;;;0.20;0.20;;;;;;;17.89;99.08;100049.13;5056945;28;20509;-61
2023/10/03 02:29:17;;;;;;;0.20;0.20;;;;;;;17.94;98.91;100056.94;5054469;28;20113;-61
2023/10/03 02:31:43;;;;;;;0.20;0.20;;;;;;;17.95;98.75;100054.16;5066705;28;20380;-61
2023/10/03 02:34:08;;;;;;;0.20;0.20;;;;;;;17.94;98.25;100038.09;5065741;28;20400;-61
2023/10/03 02:36:34;;;;;;;0.20;0.20;;;;;;;17.93;98.37;100042.63;5056664;28;20033;-61
2023/10/03 02:39:00;;;;;;;0.20;0.20;;;;;;;17.91;98.23;100052.59;5048435;28;20075;-60
2023/10/03 02:41:26;;;;;;;0.30;0.30;;;;;;;17.90;98.04;100050.00;5052506;28;20025;-60
2023/10/03 02:43:51;;;;;;;0.20;0.20;;;;;;;17.88;98.02;100052.78;5053627;28;20025;-60
2023/10/03 02:46:17;;;;;;;0.20;0.20;;;;;;;17.88;97.76;100043.84;5054328;28;20025;-60
2023/10/03 02:48:43;;;;;;;0.20;0.20;;;;;;;17.89;97.85;100041.06;5050926;28;20024;-59
2023/10/03 02:51:12;;;;;;;0.20;0.20;;;;;;;17.84;97.65;100029.72;5058264;28;20029;-60
2023/10/03 02:53:38;;;;;;;0.20;0.20;;;;;;;17.87;97.62;100047.50;5063781;28;20035;-60
2023/10/03 02:56:04;;;;;;;0.20;0.20;;;;;;;17.86;97.70;100053.84;5085858;28;20027;-59
2023/10/03 02:58:29;;;;;;;0.20;0.20;;;;;;;17.79;97.67;100045.28;5084103;28;20762;-59
2023/10/03 03:00:56;;;;;;;0.20;0.20;;;;;;;17.85;97.79;100041.34;5068716;28;20043;-59
2023/10/03 03:03:32;;;;;;;0.20;0.20;;;;;;;17.82;98.11;100042.41;5069718;28;20020;-59
2023/10/03 03:06:03;;;;;;;0.15;0.15;;;;;;;17.81;97.75;100040.66;5055851;28;20467;-60
2023/10/03 03:08:29;;;;;;;0.20;0.20;;;;;;;17.83;97.86;100035.19;5049489;28;20020;-60
2023/10/03 03:10:57;;;;;;;0.20;0.20;;;;;;;17.83;97.44;100030.69;5056775;28;20397;-59
2023/10/03 03:13:27;;;;;;;0.20;0.20;;;;;;;17.87;97.18;100040.31;5048708;28;20103;-59
2023/10/03 03:16:00;;;;;;;0.22;0.22;;;;;;;17.89;95.99;100029.44;5048424;28;20079;-59
2023/10/03 03:18:53;;;;;;;0.20;0.20;;;;;;;17.97;94.43;100021.75;5050855;28;20029;-60
2023/10/03 03:21:20;;;;;;;0.20;0.20;;;;;;;18.12;92.89;100023.50;5048469;28;20534;-59
2023/10/03 03:24:09;;;;;;;0.20;0.20;;;;;;;18.23;91.89;100021.84;5048815;28;20423;-59
2023/10/03 03:26:39;;;;;;;0.20;0.20;;;;;;;18.38;90.11;100025.38;5058326;28;20020;-60
2023/10/03 03:29:20;;;;;;;0.20;0.20;;;;;;;18.48;89.36;100020.28;5057154;28;20029;-58
2023/10/03 03:31:46;;;;;;;0.20;0.20;;;;;;;18.53;88.47;100019.03;5051052;28;20052;-57
2023/10/03 03:34:11;;;;;;;0.20;0.20;;;;;;;18.54;88.69;100026.16;5048332;28;20083;-57
2023/10/03 03:36:40;;;;;;;0.20;0.20;;;;;;;18.53;88.76;100018.16;5050975;28;20865;-57
2023/10/03 03:39:17;;;;;;;0.20;0.20;;;;;;;18.49;88.54;100014.81;5048290;28;20033;-58
2023/10/03 03:41:43;;;;;;;0.20;0.20;;;;;;;18.48;88.78;100017.59;5061980;28;20073;-58
2023/10/03 03:44:12;;;;;;;0.20;0.20;;;;;;;18.48;88.10;100009.53;5050533;28;20037;-58
2023/10/03 03:46:43;;;;;;;0.20;0.20;;;;;;;18.48;88.35;100023.00;5048458;28;20028;-58
2023/10/03 03:49:09;;;;;;;0.20;0.20;;;;;;;18.51;87.63;100022.78;5064676;28;20047;-57
2023/10/03 03:51:35;;;;;;;0.20;0.20;;;;;;;18.56;86.60;100024.22;5072124;28;20383;-58
2023/10/03 03:54:03;;;;;;;0.20;0.20;;;;;;;18.70;85.85;100026.03;5049029;28;20021;-58
2023/10/03 03:56:29;;;;;;;0.20;0.20;;;;;;;18.80;84.36;100024.44;5057395;28;20059;-57
2023/10/03 03:58:55;;;;;;;0.20;0.20;;;;;;;18.91;83.24;100033.53;5050533;28;20021;-57
2023/10/03 04:01:21;;;;;;;0.20;0.20;;;;;;;18.99;82.44;100027.66;5048999;28;20395;-58
2023/10/03 04:03:50;;;;;;;0.20;0.20;;;;;;;19.09;81.34;100035.00;5048950;28;20036;-57
2023/10/03 04:06:16;;;;;;;0.20;0.20;;;;;;;19.16;80.97;100025.53;5051078;28;20029;-57
2023/10/03 04:08:41;;;;;;;0.20;0.20;;;;;;;19.18;80.46;100022.75;5051366;28;20021;-58
2023/10/03 04:11:07;;;;;;;0.20;0.20;;;;;;;19.15;80.55;100017.56;5068722;28;20044;-58
2023/10/03 04:13:38;;;;;;;0.20;0.20;;;;;;;19.23;79.29;100020.59;5070617;28;20068;-57
2023/10/03 04:16:07;;;;;;;0.10;0.10;;;;;;;19.29;78.33;100014.84;5069020;28;20417;-57
2023/10/03 04:18:34;;;;;;;0.13;0.13;;;;;;;19.30;78.69;100009.34;5072375;28;20417;-57
2023/10/03 04:21:00;;;;;;;0.20;0.20;;;;;;;19.37;77.86;100012.47;5077250;28;20012;-57
2023/10/03 04:23:26;;;;;;;0.20;0.20;;;;;;;19.39;77.44;100007.81;5084687;28;20020;-58
2023/10/03 04:25:51;;;;;;;0.20;0.20;;;;;;;19.49;76.82;100017.00;5078442;28;20431;-58
2023/10/03 04:28:17;;;;;;;0.10;0.10;;;;;;;19.57;76.39;100020.06;5082991;28;20040;-58
2023/10/03 04:30:42;;;;;;;0.20;0.20;;;;;;;19.57;75.90;100010.13;5074281;28;20479;-57
2023/10/03 04:33:08;;;;;;;0.20;0.20;;;;;;;19.60;75.53;100011.75;5084353;28;20056;-57
2023/10/03 04:35:34;;;;;;;0.20;0.20;;;;;;;19.60;75.52;100011.75;5073832;28;20516;-58
2023/10/03 04:38:00;;;;;;;0.20;0.20;;;;;;;19.59;75.43;100020.81;5071403;28;20052;-57
2023/10/03 04:40:31;;;;;;;0.20;0.20;;;;;;;19.56;75.60;100023.72;5076017;28;20117;-58
2023/10/03 04:43:05;;;;;;;0.20;0.20;;;;;;;19.51;75.72;100020.47;5078478;28;20028;-58
2023/10/03 04:45:32;;;;;;;0.20;0.20;;;;;;;19.58;75.31;100021.78;5076906;28;20471;-58
2023/10/03 04:47:57;;;;;;;0.20;0.20;;;;;;;19.59;74.85;100018.97;5072526;28;20093;-58
2023/10/03 04:50:25;;;;;;;0.20;0.20;;;;;;;19.57;75.09;100020.91;5079501;28;20036;-58
2023/10/03 04:52:52;;;;;;;0.20;0.20;;;;;;;19.56;75.44;100024.59;5073595;28;20031;-58
2023/10/03 04:55:18;;;;;;;0.10;0.10;;;;;;;19.60;75.02;100026.09;5081322;28;20105;-57
2023/10/03 04:57:51;;;;;;;0.10;0.10;;;;;;;19.61;74.64;100026.97;5081310;28;20028;-57
2023/10/03 05:00:22;;;;;;;0.20;0.20;;;;;;;19.62;74.26;100034.09;5089599;28;20095;-57
2023/10/03 05:02:50;;;;;;;0.10;0.10;;;;;;;19.61;74.79;100026.97;5091739;28;20043;-58
2023/10/03 05:05:20;;;;;;;0.13;0.13;;;;;;;19.63;74.42;100035.84;5078314;28;20494;-57
2023/10/03 05:07:52;;;;;;;0.10;0.10;;;;;;;19.63;74.70;100031.31;5079229;28;20048;-57
2023/10/03 05:10:18;;;;;;;0.10;0.10;;;;;;;19.59;73.77;100023.50;5074906;28;20066;-57
2023/10/03 05:12:48;;;;;;;0.10;0.10;;;;;;;19.63;74.15;100033.13;5091604;28;20106;-57
2023/10/03 05:15:16;;;;;;;0.20;0.20;;;;;;;19.64;73.94;100032.16;5088638;28;20032;-57
2023/10/03 05:17:45;;;;;;;0.10;0.10;;;;;;;19.67;73.52;100040.03;5082398;28;20029;-57
2023/10/03 05:20:17;;;;;;;0.20;0.20;;;;;;;19.71;73.10;100030.75;5071670;28;20024;-58
2023/10/03 05:22:45;;;;;;;0.17;0.17;;;;;;;19.75;72.63;100039.50;5080222;28;20028;-57
2023/10/03 05:25:11;;;;;;;0.20;0.20;;;;;;;19.77;72.65;100038.41;5087214;28;20356;-57
2023/10/03 05:27:39;;;;;;;0.10;0.10;;;;;;;19.77;72.63;100043.81;5090263;28;20073;-57
2023/10/03 05:30:05;;;;;;;0.20;0.20;;;;;;;19.76;72.97;100038.53;5075625;28;20021;-57
2023/10/03 05:32:31;;;;;;;0.20;0.20;;;;;;;19.75;72.70;100043.09;5070272;28;20396;-58
2023/10/03 05:34:58;;;;;;;0.20;0.20;;;;;;;19.77;71.84;100043.81;5072935;28;20042;-57
2023/10/03 05:37:25;;;;;;;0.20;0.20;;;;;;;19.79;71.94;100047.28;5070159;28;20035;-57
2023/10/03 05:39:50;;;;;;;0.20;0.20;;;;;;;19.81;72.43;100048.03;5084294;28;20058;-57
2023/10/03 05:42:17;;;;;;;0.17;0.17;;;;;;;19.76;72.67;100044.81;5078152;28;20059;-58
2023/10/03 05:44:44;;;;;;;0.20;0.20;;;;;;;19.80;72.14;100049.03;5074264;28;20472;-57
2023/10/03 05:47:09;;;;;;;0.10;0.10;;;;;;;19.80;72.39;100059.84;5085222;28;20054;-57
2023/10/03 05:49:35;;;;;;;0.20;0.20;;;;;;;19.85;70.38;100057.66;5070925;28;21014;-59
2023/10/03 05:52:00;;;;;;;0.10;0.10;;;;;;;19.99;70.31;100059.38;5076412;28;20085;-59
2023/10/03 05:54:26;;;;;;;0.20;0.20;;;;;;;20.06;71.02;100055.28;5073448;28;20024;-59
2023/10/03 05:56:52;;;;;;;0.10;0.10;;;;;;;20.08;70.20;100062.28;5083687;28;20024;-59
2023/10/03 05:59:20;;;;;;;0.10;0.10;;;;;;;20.01;69.06;100025.91;5091025;28;20161;-59
2023/10/03 06:01:46;;;;;;;0.10;0.10;;;;;;;20.23;69.72;100052.31;5081296;28;20019;-59
2023/10/03 06:04:11;;;;;;;0.20;0.20;;;;;;;20.24;69.76;100054.88;5070894;28;20035;-59
2023/10/03 06:06:37;;;;;;;0.20;0.20;;;;;;;20.28;69.49;100053.69;5070474;28;20434;-59
2023/10/03 06:09:04;;;;;;;0.20;0.20;;;;;;;20.41;68.51;100057.22;5070814;28;20037;-59
2023/10/03 06:11:30;;;;;;;0.13;0.13;;;;;;;20.51;68.60;100058.28;5076441;28;20044;-59
2023/10/03 06:13:57;;;;;;;0.10;0.10;;;;;;;20.63;67.40;100052.00;5071046;28;20016;-59
2023/10/03 06:16:28;;;;;;;0.10;0.10;;;;;;;21.08;65.46;100060.41;5070744;28;20017;-59
2023/10/03 06:18:53;;;;;;;0.10;0.10;;;;;;;21.44;63.53;100055.81;5089089;28;20020;-59
2023/10/03 06:21:19;;;;;;;0.10;0.10;;;;;;;21.89;63.50;100071.22;5088238;28;20031;-59
2023/10/03 06:23:47;;;;;;;0.10;0.10;;;;;;;22.61;61.27;100072.69;5071367;28;20036;-59
2023/10/03 06:26:17;;;;;;;0.10;0.10;;;;;;;23.55;57.87;100065.69;5067826;28;20020;-59
2023/10/03 06:28:43;;;;;;;0.10;0.10;;;;;;;24.69;53.69;100071.03;5067418;28;20036;-59
2023/10/03 06:31:10;;;;;;;0.10;0.10;;;;;;;24.97;49.98;100064.81;5079832;28;20031;-59
2023/10/03 06:33:37;;;;;;;0.05;0.05;;;;;;;24.63;50.62;100069.66;5082786;28;20040;-59
2023/10/03 06:36:06;;;;;;;0.10;0.10;;;;;;;23.88;53.01;100080.94;5080232;28;20746;-59
2023/10/03 06:38:31;;;;;;;0.10;0.10;;;;;;;23.04;55.66;100081.75;5085113;28;20720;-59
2023/10/03 06:40:57;;;;;;;0.15;0.15;;;;;;;22.44;58.73;100070.44;5088247;28;20118;-59
2023/10/03 06:43:22;;;;;;;0.10;0.10;;;;;;;22.02;60.84;100079.28;5088174;28;20066;-59
2023/10/03 06:45:47;;;;;;;0.10;0.10;;;;;;;21.69;63.59;100077.31;5072304;28;20040;-59
2023/10/03 06:48:13;;;;;;;0.10;0.10;;;;;;;21.46;64.51;100074.63;5087829;28;20031;-59
2023/10/03 06:50:38;;;;;;;0.10;0.10;;;;;;;21.35;64.87;100072.72;5072519;28;20033;-59
2023/10/03 06:53:05;;;;;;;0.10;0.10;;;;;;;21.28;65.82;100070.63;5079384;28;20092;-59
2023/10/03 06:55:30;;;;;;;0.10;0.10;;;;;;;21.23;66.33;100067.38;5087085;28;20102;-59
2023/10/03 06:57:57;;;;;;;0.10;0.10;;;;;;;21.20;67.28;100073.03;5084670;28;20115;-59
2023/10/03 07:00:23;;;;;;;0.10;0.10;;;;;;;21.16;67.55;100076.94;5086838;28;20016;-59
2023/10/03 07:02:48;;;;;;;0.10;0.10;;;;;;;21.36;68.51;100084.44;5088217;28;20609;-59
2023/10/03 07:05:15;;;;;;;0.20;0.20;;;;;;;22.22;65.78;100077.69;5078933;28;20123;-59
2023/10/03 07:07:41;;;;;;;0.10;0.10;;;;;;;22.35;64.40;100084.72;5084803;28;20100;-59
2023/10/03 07:10:10;;;;;;;0.13;0.13;;;;;;;22.10;65.46;100087.66;5088803;28;20139;-59
2023/10/03 07:12:35;;;;;;;0.10;0.10;;;;;;;21.81;66.24;100083.66;5087318;28;20035;-59
2023/10/03 07:15:00;;;;;;;0.10;0.10;;;;;;;21.68;66.17;100090.97;5087178;28;20040;-59
2023/10/03 07:17:26;;;;;;;0.10;0.10;;;;;;;21.62;67.50;100096.84;5079127;28;20131;-59
2023/10/03 07:19:51;;;;;;;0.10;0.10;;;;;;;22.44;69.65;100096.69;5081382;28;20035;-59
2023/10/03 07:22:20;;;;;;;0.10;0.10;;;;;;;24.80;59.70;100099.97;5076924;28;20024;-59
2023/10/03 07:24:46;;;;;;;0.10;0.10;;;;;;;27.24;51.68;100099.19;5082276;28;20028;-59
2023/10/03 07:27:14;;;;;;;0.10;0.10;;;;;;;29.05;44.24;100107.50;5085050;28;20031;-59
2023/10/03 07:29:42;;;;;;;0.10;0.10;;;;;;;30.18;41.80;100108.66;5076238;28;20529;-59
2023/10/03 07:32:12;;;;;;;0.10;0.10;;;;;;;30.82;39.72;100108.59;5078722;28;20068;-59
2023/10/03 07:34:46;;;;;;;0.10;0.10;;;;;;;31.18;38.84;100109.81;5078606;28;20099;-59
2023/10/03 07:37:14;;;;;;;0.00;0.00;;;;;;;31.39;37.83;100112.84;5083933;28;20047;-59
2023/10/03 07:39:39;;;;;;;0.10;0.10;;;;;;;31.33;37.31;100115.44;5083473;28;20095;-59
2023/10/03 07:42:05;;;;;;;0.10;0.10;;;;;;;31.42;37.27;100111.59;5073594;28;20035;-59
2023/10/03 07:44:31;;;;;;;0.00;0.00;;;;;;;31.59;37.49;100114.09;5079369;28;20438;-59
2023/10/03 07:46:58;;;;;;;0.00;0.00;;;;;;;31.66;36.82;100116.97;5083346;28;20032;-59
2023/10/03 07:49:23;;;;;;;0.10;0.10;;;;;;;31.95;36.95;100109.75;5074029;28;20040;-59
2023/10/03 07:51:59;;;;;;;0.08;0.08;;;;;;;31.99;36.85;100112.97;5069043;28;20042;-59
2023/10/03 07:54:31;;;;;;;0.00;0.00;;;;;;;31.78;37.05;100118.28;5077768;28;20093;-59
2023/10/03 07:57:04;;;;;;;0.08;0.08;;;;;;;31.97;37.21;100117.81;5081515;28;20663;-59
2023/10/03 07:59:30;;;;;;;;;;;;;;;32.11;36.41;100109.59;5083375;28;20493;-59
2023/10/03 08:01:57;;;;;;;0.00;0.00;;;;;;;31.89;36.63;100115.13;5078980;28;20009;-60
2023/10/03 08:04:23;;;;;;;0.00;0.00;;;;;;;31.96;37.10;100118.84;5079848;28;20042;-59
2023/10/03 08:06:49;;;;;;;0.00;0.00;;;;;;;31.91;37.07;100121.31;5082538;28;20119;-59
2023/10/03 08:09:15;;;;;;;0.00;0.00;;;;;;;31.43;37.76;100118.84;5072154;28;20051;-58
2023/10/03 08:11:40;;;;;;;0.00;0.00;;;;;;;31.29;37.53;100122.28;5082314;28;20416;-58
2023/10/03 08:14:14;;;;;;;0.00;0.00;;;;;;;31.04;38.13;100117.97;5076033;28;20039;-58
2023/10/03 08:16:40;;;;;;;0.00;0.00;;;;;;;31.02;38.32;100114.53;5074985;28;20388;-58
2023/10/03 08:19:09;;;;;;;0.00;0.00;;;;;;;30.85;38.36;100114.59;5078999;28;20035;-58
2023/10/03 08:21:35;;;;;;;0.00;0.00;;;;;;;31.07;38.23;100112.94;5086512;28;20073;-59
2023/10/03 08:24:09;;;;;;;0.00;0.00;;;;;;;31.64;37.97;100111.66;5078467;28;20179;-59
2023/10/03 08:26:36;;;;;;;0.00;0.00;;;;;;;31.26;37.79;100106.16;5078802;28;20410;-59
2023/10/03 08:29:04;;;;;;;0.00;0.00;;;;;;;31.39;37.80;100117.47;5076644;28;20106;-58
2023/10/03 08:31:33;;;;;;;0.00;0.00;;;;;;;31.63;37.56;100120.09;5072622;28;20056;-58
2023/10/03 08:33:58;;;;;;;0.00;0.00;;;;;;;31.80;37.40;100117.03;5074672;28;20055;-58
2023/10/03 08:36:28;;;;;;;0.00;0.00;;;;;;;32.09;37.57;100127.34;5073981;28;20428;-58
2023/10/03 08:39:04;;;;;;;0.00;0.00;;;;;;;32.29;36.61;100127.69;5075270;28;20046;-58
2023/10/03 08:42:29;;;;;;;0.00;0.00;;;;;;;32.27;37.11;100119.63;5083469;28;20609;-58
2023/10/03 08:44:54;;;;;;;0.00;0.00;;;;;;;32.86;37.24;100110.41;5084253;28;20608;-59
2023/10/03 08:47:31;;;;;;;0.00;0.00;;;;;;;32.96;36.48;100112.91;5076726;28;20036;-59
2023/10/03 08:50:29;;;;;;;0.00;0.00;;;;;;;33.09;36.20;100125.00;5072622;28;20045;-58
2023/10/03 08:52:56;;;;;;;0.00;0.00;;;;;;;33.21;35.69;100115.16;5084633;28;20032;-58
2023/10/03 08:55:26;;;;;;;0.00;0.00;;;;;;;33.13;35.83;100115.28;5077426;28;20048;-58
2023/10/03 08:57:52;;;;;;;0.00;0.00;;;;;;;33.10;35.77;100118.41;5073573;28;20016;-59
2023/10/03 09:00:25;;;;;;;0.00;0.00;;;;;;;32.94;36.31;100124.13;5072295;28;20029;-58
2023/10/03 09:02:59;;;;;;;0.00;0.00;;;;;;;32.91;36.72;100124.53;5082462;28;20447;-58
2023/10/03 09:05:25;;;;;;;0.00;0.00;;;;;;;32.84;36.32;100128.19;5076417;28;20115;-59
2023/10/03 09:07:58;;;;;;;0.00;0.00;;;;;;;32.65;36.51;100121.34;5073501;28;20032;-58
2023/10/03 09:10:26;;;;;;;0.00;0.00;;;;;;;32.26;36.90;100131.66;5080601;28;20041;-59
2023/10/03 09:12:53;;;;;;;0.00;0.00;;;;;;;31.87;38.00;100131.81;5079543;28;20044;-59
2023/10/03 09:15:22;;;;;;;0.00;0.00;;;;;;;31.64;38.72;100130.03;5088999;28;20038;-58
2023/10/03 09:17:49;;;;;;;0.00;0.00;;;;;;;31.59;38.50;100127.84;5077078;28;20031;-58
2023/10/03 09:20:22;;;;;;;0.00;0.00;;;;;;;32.14;38.60;100135.91;5080945;28;20544;-59
2023/10/03 09:22:48;;;;;;;0.00;0.00;;;;;;;31.89;38.65;100129.75;5087394;28;20032;-58
2023/10/03 09:25:16;;;;;;;0.00;0.00;;;;;;;31.69;38.48;100130.34;5077675;28;20025;-59
2023/10/03 09:27:42;;;;;;;0.00;0.00;;;;;;;32.11;37.72;100136.25;5068858;28;20508;-58
2023/10/03 09:30:10;;;;;;;0.00;0.00;;;;;;;32.22;37.05;100124.81;5069642;28;20048;-58
2023/10/03 09:32:39;;;;;;;0.00;0.00;;;;;;;32.40;37.10;100119.00;5080584;28;20731;-58
2023/10/03 09:35:09;;;;;;;0.00;0.00;;;;;;;32.65;36.38;100106.69;5080608;28;20081;-58
2023/10/03 09:37:35;;;;;;;0.00;0.00;;;;;;;32.97;37.15;100117.38;5055622;28;20174;-58
2023/10/03 09:40:16;;;;;;;0.00;0.00;;;;;;;33.20;36.25;100118.13;5072016;28;20518;-59
2023/10/03 09:42:48;;;;;;;0.00;0.00;;;;;;;32.91;36.88;100124.53;5070385;28;20062;-59
2023/10/03 09:45:17;;;;;;;0.00;0.00;;;;;;;32.45;37.43;100136.69;5075928;28;20027;-59
2023/10/03 09:47:43;;;;;;;0.00;0.00;;;;;;;32.44;38.41;100126.69;5081005;28;20032;-59
2023/10/03 09:50:09;;;;;;;0.00;0.00;;;;;;;32.01;38.96;100127.41;5077553;28;20016;-59
2023/10/03 09:52:37;;;;;;;0.00;0.00;;;;;;;31.79;39.34;100125.47;5076356;28;20028;-59
2023/10/03 09:55:17;;;;;;;0.00;0.00;;;;;;;31.24;40.11;100132.97;5079798;28;20032;-59
2023/10/03 09:57:59;;;;;;;0.00;0.00;;;;;;;30.45;41.88;100122.88;5081223;28;20020;-59
2023/10/03 10:00:39;;;;;;;0.00;0.00;;;;;;;29.95;43.25;100130.41;5070387;28;20128;-59
2023/10/03 10:03:19;;;;;;;0.00;0.00;;;;;;;29.56;44.18;100132.03;5083056;28;20096;-59
2023/10/03 10:06:14;;;;;;;0.00;0.00;;;;;;;29.19;44.75;100131.59;5073095;28;20428;-59
2023/10/03 10:08:47;;;;;;;0.00;0.00;;;;;;;28.95;45.99;100134.16;5085598;28;20093;-59
2023/10/03 10:11:13;;;;;;;0.00;0.00;;;;;;;28.77;46.32;100133.41;5082710;28;20060;-59
2023/10/03 10:14:09;;;;;;;0.00;0.00;;;;;;;28.62;46.72;100135.00;5082184;28;20032;-59
2023/10/03 10:16:35;;;;;;;0.00;0.00;;;;;;;28.65;47.34;100137.44;5078534;28;20029;-59
2023/10/03 10:19:01;;;;;;;0.00;0.00;;;;;;;29.20;47.24;100145.13;5081890;28;20023;-59
2023/10/03 10:21:37;;;;;;;0.00;0.00;;;;;;;29.18;47.55;100138.06;5079076;28;20035;-59
2023/10/03 10:24:16;;;;;;;0.00;0.00;;;;;;;28.92;48.95;100129.03;5084363;28;20395;-59
2023/10/03 10:26:48;;;;;;;0.00;0.00;;;;;;;28.69;51.22;100136.09;5086777;28;20510;-59
2023/10/03 10:29:19;;;;;;;0.00;0.00;;;;;;;28.45;50.57;100143.09;5085400;28;20033;-57
2023/10/03 10:31:49;;;;;;;0.00;0.00;;;;;;;28.16;50.50;100147.13;5068747;28;20515;-57
2023/10/03 10:34:20;;;;;;;0.00;0.00;;;;;;;27.99;51.97;100157.06;5081732;28;20395;-57
2023/10/03 10:37:01;;;;;;;0.00;0.00;;;;;;;27.76;52.74;100150.31;5090208;28;20028;-57
2023/10/03 10:40:09;;;;;;;0.00;0.00;;;;;;;27.68;54.26;100152.97;5080678;28;20062;-57
2023/10/03 10:42:54;;;;;;;0.00;0.00;;;;;;;27.52;54.70;100147.34;5085416;28;20514;-57
2023/10/03 10:45:20;;;;;;;0.00;0.00;;;;;;;27.43;55.01;100152.88;5090363;28;20118;-57
2023/10/03 10:47:51;;;;;;;0.00;0.00;;;;;;;27.29;56.28;100137.00;5084901;28;20095;-57
2023/10/03 10:50:26;;;;;;;0.00;0.00;;;;;;;27.06;57.82;100142.84;5082995;28;20028;-57
2023/10/03 10:52:53;;;;;;;0.00;0.00;;;;;;;27.06;57.95;100140.13;5076202;28;20032;-57
2023/10/03 10:55:21;;;;;;;0.00;0.00;;;;;;;26.98;57.70;100133.69;5080501;28;20032;-57
2023/10/03 10:57:47;;;;;;;0.00;0.00;;;;;;;26.84;58.14;100136.88;5082737;28;20063;-57
2023/10/03 11:00:21;;;;;;;0.00;0.00;;;;;;;26.70;56.68;100140.13;5088216;28;20151;-57
2023/10/03 11:02:47;;;;;;;0.00;0.00;;;;;;;26.63;57.13;100141.69;5087510;28;20043;-57
2023/10/03 11:05:12;;;;;;;0.00;0.00;;;;;;;26.57;57.10;100140.41;5088157;28;20024;-57
2023/10/03 11:07:44;;;;;;;0.00;0.00;;;;;;;26.39;56.64;100139.44;5077899;28;20107;-58
2023/10/03 11:10:12;;;;;;;0.10;0.10;;;;;;;26.31;56.25;100147.50;5074850;28;20081;-57
2023/10/03 11:12:38;;;;;;;0.00;0.00;;;;;;;26.19;57.35;100147.81;5084647;28;20056;-58
2023/10/03 11:15:10;;;;;;;0.08;0.08;;;;;;;26.20;58.75;100149.53;5088252;28;20044;-57
2023/10/03 11:17:36;;;;;;;0.00;0.00;;;;;;;26.12;57.68;100150.25;5080568;28;20819;-58
2023/10/03 11:20:08;;;;;;;0.00;0.00;;;;;;;26.20;57.82;100150.41;5084384;28;20082;-58
2023/10/03 11:22:37;;;;;;;0.00;0.00;;;;;;;26.33;59.66;100145.50;5088521;28;20016;-58
2023/10/03 11:25:08;;;;;;;0.00;0.00;;;;;;;26.60;58.47;100147.44;5078790;28;20039;-59
2023/10/03 11:27:33;;;;;;;0.10;0.10;;;;;;;26.72;55.63;100149.03;5068500;28;20032;-59
2023/10/03 11:29:59;;;;;;;0.00;0.00;;;;;;;26.93;54.36;100152.38;5073145;28;20039;-59
2023/10/03 11:32:32;;;;;;;0.00;0.00;;;;;;;27.21;53.57;100163.16;5072205;28;20104;-59
2023/10/03 11:34:58;;;;;;;;;;;;;;;27.63;52.07;100155.31;5082035;28;20032;-59
2023/10/03 11:37:39;;;;;;;0.00;0.00;;;;;;;27.89;51.61;100150.81;5079830;28;19916;-60